sensor_id;sensor_type;location;lat;lon;timestamp;P1;durP1;ratioP1;P2;durP2;ratioP2
7247;SDS011;3665;51.034;13.642;2022-08-03T00:02:58;2.27;;;2.17;;
7247;SDS011;3665;51.034;13.642;2022-08-03T00:07:43;2.50;;;2.30;;
7247;SDS011;3665;51.034;13.642;2022-08-03T00:12:30;4.30;;;2.63;;
7247;SDS011;3665;51.034;13.642;2022-08-03T00:17:20;3.67;;;2.50;;
7247;SDS011;3665;51.034;13.642;2022-08-03T00:22:07;4.77;;;2.30;;
7247;SDS011;3665;51.034;13.642;2022-08-03T00:26:52;3.47;;;2.40;;
7247;SDS011;3665;51.034;13.642;2022-08-03T00:31:38;3.60;;;2.53;;
7247;SDS011;3665;51.034;13.642;2022-08-03T00:36:40;5.27;;;2.70;;
7247;SDS011;3665;51.034;13.642;2022-08-03T00:41:25;3.33;;;2.10;;
7247;SDS011;3665;51.034;13.642;2022-08-03T00:46:12;2.97;;;2.67;;
7247;SDS011;3665;51.034;13.642;2022-08-03T00:51:04;2.80;;;2.57;;
7247;SDS011;3665;51.034;13.642;2022-08-03T00:55:50;4.43;;;2.63;;
7247;SDS011;3665;51.034;13.642;2022-08-03T01:00:34;4.23;;;2.70;;
7247;SDS011;3665;51.034;13.642;2022-08-03T01:05:20;3.40;;;2.80;;
7247;SDS011;3665;51.034;13.642;2022-08-03T01:10:08;5.53;;;3.37;;
7247;SDS011;3665;51.034;13.642;2022-08-03T01:14:59;3.17;;;2.97;;
7247;SDS011;3665;51.034;13.642;2022-08-03T01:19:51;3.30;;;3.00;;
7247;SDS011;3665;51.034;13.642;2022-08-03T01:24:42;3.93;;;3.03;;
7247;SDS011;3665;51.034;13.642;2022-08-03T01:29:37;4.27;;;2.93;;
7247;SDS011;3665;51.034;13.642;2022-08-03T01:34:35;4.10;;;2.97;;
7247;SDS011;3665;51.034;13.642;2022-08-03T01:39:24;3.57;;;2.77;;
7247;SDS011;3665;51.034;13.642;2022-08-03T01:44:10;3.40;;;3.10;;
7247;SDS011;3665;51.034;13.642;2022-08-03T01:49:12;4.23;;;2.93;;
7247;SDS011;3665;51.034;13.642;2022-08-03T01:53:57;3.23;;;2.90;;
7247;SDS011;3665;51.034;13.642;2022-08-03T01:58:42;3.83;;;3.53;;
7247;SDS011;3665;51.034;13.642;2022-08-03T02:03:27;3.20;;;2.90;;
7247;SDS011;3665;51.034;13.642;2022-08-03T02:08:13;3.43;;;3.00;;
7247;SDS011;3665;51.034;13.642;2022-08-03T02:13:00;3.30;;;3.03;;
7247;SDS011;3665;51.034;13.642;2022-08-03T02:17:45;3.07;;;2.83;;
7247;SDS011;3665;51.034;13.642;2022-08-03T02:22:29;3.50;;;3.20;;
7247;SDS011;3665;51.034;13.642;2022-08-03T02:27:17;3.33;;;3.10;;
7247;SDS011;3665;51.034;13.642;2022-08-03T02:32:04;3.00;;;2.73;;
7247;SDS011;3665;51.034;13.642;2022-08-03T02:36:49;4.50;;;3.50;;
7247;SDS011;3665;51.034;13.642;2022-08-03T02:41:36;3.60;;;3.30;;
7247;SDS011;3665;51.034;13.642;2022-08-03T02:46:26;4.07;;;3.23;;
7247;SDS011;3665;51.034;13.642;2022-08-03T02:51:14;3.50;;;3.20;;
7247;SDS011;3665;51.034;13.642;2022-08-03T02:56:00;4.13;;;2.90;;
7247;SDS011;3665;51.034;13.642;2022-08-03T03:00:45;3.90;;;3.07;;
7247;SDS011;3665;51.034;13.642;2022-08-03T03:05:32;3.73;;;3.13;;
7247;SDS011;3665;51.034;13.642;2022-08-03T03:10:37;2.93;;;2.73;;
7247;SDS011;3665;51.034;13.642;2022-08-03T03:15:22;3.93;;;3.30;;
7247;SDS011;3665;51.034;13.642;2022-08-03T03:20:06;3.43;;;3.23;;
7247;SDS011;3665;51.034;13.642;2022-08-03T03:24:52;3.50;;;3.20;;
7247;SDS011;3665;51.034;13.642;2022-08-03T03:29:38;3.50;;;3.20;;
7247;SDS011;3665;51.034;13.642;2022-08-03T03:34:23;3.60;;;3.30;;
7247;SDS011;3665;51.034;13.642;2022-08-03T03:39:09;3.47;;;3.23;;
7247;SDS011;3665;51.034;13.642;2022-08-03T03:43:58;3.83;;;3.50;;
7247;SDS011;3665;51.034;13.642;2022-08-03T03:48:41;3.40;;;3.10;;
7247;SDS011;3665;51.034;13.642;2022-08-03T03:53:27;3.43;;;3.00;;
7247;SDS011;3665;51.034;13.642;2022-08-03T03:58:10;4.10;;;3.30;;
7247;SDS011;3665;51.034;13.642;2022-08-03T04:02:55;3.60;;;3.30;;
7247;SDS011;3665;51.034;13.642;2022-08-03T04:07:41;3.77;;;3.47;;
7247;SDS011;3665;51.034;13.642;2022-08-03T04:12:51;3.33;;;3.03;;
7247;SDS011;3665;51.034;13.642;2022-08-03T04:17:36;4.87;;;3.30;;
7247;SDS011;3665;51.034;13.642;2022-08-03T04:22:23;3.37;;;3.00;;
7247;SDS011;3665;51.034;13.642;2022-08-03T04:27:10;3.10;;;2.80;;
7247;SDS011;3665;51.034;13.642;2022-08-03T04:31:55;3.33;;;3.03;;
7247;SDS011;3665;51.034;13.642;2022-08-03T04:36:44;3.47;;;2.80;;
7247;SDS011;3665;51.034;13.642;2022-08-03T04:41:33;3.50;;;3.20;;
7247;SDS011;3665;51.034;13.642;2022-08-03T04:46:37;8.00;;;3.00;;
7247;SDS011;3665;51.034;13.642;2022-08-03T04:51:31;6.70;;;3.10;;
7247;SDS011;3665;51.034;13.642;2022-08-03T04:56:18;3.87;;;3.00;;
7247;SDS011;3665;51.034;13.642;2022-08-03T05:01:03;5.80;;;2.83;;
7247;SDS011;3665;51.034;13.642;2022-08-03T05:05:48;4.00;;;2.77;;
7247;SDS011;3665;51.034;13.642;2022-08-03T05:10:32;4.00;;;3.10;;
7247;SDS011;3665;51.034;13.642;2022-08-03T05:15:15;10.40;;;3.00;;
7247;SDS011;3665;51.034;13.642;2022-08-03T05:20:01;4.67;;;2.40;;
7247;SDS011;3665;51.034;13.642;2022-08-03T05:24:45;3.57;;;2.60;;
7247;SDS011;3665;51.034;13.642;2022-08-03T05:29:29;5.47;;;2.70;;
7247;SDS011;3665;51.034;13.642;2022-08-03T05:34:13;6.80;;;2.93;;
7247;SDS011;3665;51.034;13.642;2022-08-03T05:38:58;5.50;;;2.80;;
7247;SDS011;3665;51.034;13.642;2022-08-03T05:43:43;5.47;;;2.40;;
7247;SDS011;3665;51.034;13.642;2022-08-03T05:48:28;9.40;;;3.13;;
7247;SDS011;3665;51.034;13.642;2022-08-03T05:53:12;7.17;;;3.27;;
7247;SDS011;3665;51.034;13.642;2022-08-03T05:57:59;7.27;;;2.70;;
7247;SDS011;3665;51.034;13.642;2022-08-03T06:02:45;4.03;;;2.20;;
7247;SDS011;3665;51.034;13.642;2022-08-03T06:07:29;4.55;;;2.33;;
7247;SDS011;3665;51.034;13.642;2022-08-03T06:12:13;4.38;;;2.10;;
7247;SDS011;3665;51.034;13.642;2022-08-03T06:16:59;2.20;;;1.98;;
7247;SDS011;3665;51.034;13.642;2022-08-03T06:21:43;2.28;;;2.08;;
7247;SDS011;3665;51.034;13.642;2022-08-03T06:26:27;2.92;;;2.35;;
7247;SDS011;3665;51.034;13.642;2022-08-03T06:31:10;2.40;;;2.20;;
7247;SDS011;3665;51.034;13.642;2022-08-03T06:35:55;2.30;;;1.90;;
7247;SDS011;3665;51.034;13.642;2022-08-03T06:40:39;3.42;;;2.10;;
7247;SDS011;3665;51.034;13.642;2022-08-03T06:45:23;2.63;;;1.88;;
7247;SDS011;3665;51.034;13.642;2022-08-03T06:50:12;1.98;;;1.80;;
7247;SDS011;3665;51.034;13.642;2022-08-03T06:55:01;2.20;;;2.05;;
7247;SDS011;3665;51.034;13.642;2022-08-03T06:59:45;1.98;;;1.88;;
7247;SDS011;3665;51.034;13.642;2022-08-03T07:04:48;2.10;;;2.00;;
7247;SDS011;3665;51.034;13.642;2022-08-03T07:09:32;2.80;;;2.10;;
7247;SDS011;3665;51.034;13.642;2022-08-03T07:14:17;2.85;;;1.95;;
7247;SDS011;3665;51.034;13.642;2022-08-03T07:19:01;23.20;;;5.57;;
7247;SDS011;3665;51.034;13.642;2022-08-03T07:23:45;10.63;;;4.18;;
7247;SDS011;3665;51.034;13.642;2022-08-03T07:28:29;3.13;;;2.22;;
7247;SDS011;3665;51.034;13.642;2022-08-03T07:33:14;4.85;;;2.35;;
7247;SDS011;3665;51.034;13.642;2022-08-03T07:37:58;2.35;;;2.13;;
7247;SDS011;3665;51.034;13.642;2022-08-03T07:42:42;3.80;;;2.00;;
7247;SDS011;3665;51.034;13.642;2022-08-03T07:47:26;3.50;;;2.08;;
7247;SDS011;3665;51.034;13.642;2022-08-03T07:52:18;4.20;;;2.05;;
7247;SDS011;3665;51.034;13.642;2022-08-03T07:57:18;4.25;;;2.67;;
7247;SDS011;3665;51.034;13.642;2022-08-03T08:02:05;4.78;;;2.33;;
7247;SDS011;3665;51.034;13.642;2022-08-03T08:06:49;2.90;;;2.45;;
7247;SDS011;3665;51.034;13.642;2022-08-03T08:11:34;4.05;;;2.33;;
7247;SDS011;3665;51.034;13.642;2022-08-03T08:16:20;8.75;;;2.58;;
7247;SDS011;3665;51.034;13.642;2022-08-03T08:21:04;2.58;;;2.38;;
7247;SDS011;3665;51.034;13.642;2022-08-03T08:25:49;5.32;;;2.47;;
7247;SDS011;3665;51.034;13.642;2022-08-03T08:30:35;2.88;;;2.25;;
7247;SDS011;3665;51.034;13.642;2022-08-03T08:35:23;2.47;;;2.28;;
7247;SDS011;3665;51.034;13.642;2022-08-03T08:40:10;3.78;;;2.40;;
7247;SDS011;3665;51.034;13.642;2022-08-03T08:44:54;3.00;;;2.30;;
7247;SDS011;3665;51.034;13.642;2022-08-03T08:49:39;4.50;;;2.50;;
7247;SDS011;3665;51.034;13.642;2022-08-03T08:54:44;2.95;;;2.17;;
7247;SDS011;3665;51.034;13.642;2022-08-03T08:59:31;6.72;;;2.55;;
7247;SDS011;3665;51.034;13.642;2022-08-03T09:04:30;5.43;;;2.50;;
7247;SDS011;3665;51.034;13.642;2022-08-03T09:09:18;1.85;;;1.75;;
7247;SDS011;3665;51.034;13.642;2022-08-03T09:14:22;3.92;;;2.20;;
7247;SDS011;3665;51.034;13.642;2022-08-03T09:19:26;4.35;;;1.80;;
7247;SDS011;3665;51.034;13.642;2022-08-03T09:24:10;1.95;;;1.70;;
7247;SDS011;3665;51.034;13.642;2022-08-03T09:29:18;2.70;;;2.00;;
7247;SDS011;3665;51.034;13.642;2022-08-03T09:34:03;1.63;;;1.52;;
7247;SDS011;3665;51.034;13.642;2022-08-03T09:38:53;3.40;;;1.80;;
7247;SDS011;3665;51.034;13.642;2022-08-03T09:43:45;1.70;;;1.48;;
7247;SDS011;3665;51.034;13.642;2022-08-03T09:48:31;3.67;;;2.10;;
7247;SDS011;3665;51.034;13.642;2022-08-03T09:53:16;2.63;;;1.92;;
7247;SDS011;3665;51.034;13.642;2022-08-03T09:58:04;4.22;;;1.90;;
7247;SDS011;3665;51.034;13.642;2022-08-03T10:02:51;3.38;;;2.03;;
7247;SDS011;3665;51.034;13.642;2022-08-03T10:07:48;2.78;;;1.77;;
7247;SDS011;3665;51.034;13.642;2022-08-03T10:12:32;4.47;;;2.33;;
7247;SDS011;3665;51.034;13.642;2022-08-03T10:17:17;5.28;;;2.00;;
7247;SDS011;3665;51.034;13.642;2022-08-03T10:22:14;2.92;;;1.90;;
7247;SDS011;3665;51.034;13.642;2022-08-03T10:27:04;3.30;;;1.90;;
7247;SDS011;3665;51.034;13.642;2022-08-03T10:31:49;1.90;;;1.70;;
7247;SDS011;3665;51.034;13.642;2022-08-03T10:36:42;1.95;;;1.60;;
7247;SDS011;3665;51.034;13.642;2022-08-03T10:41:30;3.97;;;1.98;;
7247;SDS011;3665;51.034;13.642;2022-08-03T10:46:18;1.85;;;1.65;;
7247;SDS011;3665;51.034;13.642;2022-08-03T10:51:08;1.92;;;1.60;;
7247;SDS011;3665;51.034;13.642;2022-08-03T10:55:55;2.13;;;1.88;;
7247;SDS011;3665;51.034;13.642;2022-08-03T11:01:04;3.90;;;1.92;;
7247;SDS011;3665;51.034;13.642;2022-08-03T11:05:50;2.33;;;1.60;;
7247;SDS011;3665;51.034;13.642;2022-08-03T11:10:39;5.20;;;1.90;;
7247;SDS011;3665;51.034;13.642;2022-08-03T11:15:30;2.05;;;1.52;;
7247;SDS011;3665;51.034;13.642;2022-08-03T11:20:33;1.95;;;1.85;;
7247;SDS011;3665;51.034;13.642;2022-08-03T11:25:28;1.70;;;1.60;;
7247;SDS011;3665;51.034;13.642;2022-08-03T11:30:50;1.83;;;1.70;;
7247;SDS011;3665;51.034;13.642;2022-08-03T11:35:56;3.55;;;1.92;;
7247;SDS011;3665;51.034;13.642;2022-08-03T11:40:44;2.63;;;1.63;;
7247;SDS011;3665;51.034;13.642;2022-08-03T11:45:30;1.60;;;1.50;;
7247;SDS011;3665;51.034;13.642;2022-08-03T11:50:14;1.77;;;1.67;;
7247;SDS011;3665;51.034;13.642;2022-08-03T11:54:59;3.90;;;1.90;;
7247;SDS011;3665;51.034;13.642;2022-08-03T11:59:45;2.47;;;1.52;;
7247;SDS011;3665;51.034;13.642;2022-08-03T12:04:29;1.73;;;1.63;;
7247;SDS011;3665;51.034;13.642;2022-08-03T12:09:16;2.25;;;2.00;;
7247;SDS011;3665;51.034;13.642;2022-08-03T12:14:01;2.15;;;1.70;;
7247;SDS011;3665;51.034;13.642;2022-08-03T12:19:09;4.20;;;1.70;;
7247;SDS011;3665;51.034;13.642;2022-08-03T12:24:00;2.95;;;1.70;;
7247;SDS011;3665;51.034;13.642;2022-08-03T12:28:47;1.70;;;1.60;;
7247;SDS011;3665;51.034;13.642;2022-08-03T12:38:41;1.70;;;1.48;;
7247;SDS011;3665;51.034;13.642;2022-08-03T12:43:29;2.25;;;1.73;;
7247;SDS011;3665;51.034;13.642;2022-08-03T12:48:22;1.70;;;1.60;;
7247;SDS011;3665;51.034;13.642;2022-08-03T12:53:12;2.38;;;1.65;;
7247;SDS011;3665;51.034;13.642;2022-08-03T12:58:31;2.58;;;1.63;;
7247;SDS011;3665;51.034;13.642;2022-08-03T13:03:17;1.77;;;1.67;;
7247;SDS011;3665;51.034;13.642;2022-08-03T13:08:22;4.13;;;1.88;;
7247;SDS011;3665;51.034;13.642;2022-08-03T13:13:13;2.80;;;1.70;;
7247;SDS011;3665;51.034;13.642;2022-08-03T13:17:59;1.92;;;1.77;;
7247;SDS011;3665;51.034;13.642;2022-08-03T13:22:49;3.00;;;1.70;;
7247;SDS011;3665;51.034;13.642;2022-08-03T13:27:33;2.65;;;1.55;;
7247;SDS011;3665;51.034;13.642;2022-08-03T13:32:40;1.98;;;1.60;;
7247;SDS011;3665;51.034;13.642;2022-08-03T13:37:28;2.80;;;2.08;;
7247;SDS011;3665;51.034;13.642;2022-08-03T13:42:13;2.25;;;1.70;;
7247;SDS011;3665;51.034;13.642;2022-08-03T13:47:03;2.10;;;1.48;;
7247;SDS011;3665;51.034;13.642;2022-08-03T13:51:48;3.72;;;1.55;;
7247;SDS011;3665;51.034;13.642;2022-08-03T13:56:36;2.50;;;1.55;;
7247;SDS011;3665;51.034;13.642;2022-08-03T14:01:20;3.00;;;1.73;;
7247;SDS011;3665;51.034;13.642;2022-08-03T14:06:24;3.13;;;1.70;;
7247;SDS011;3665;51.034;13.642;2022-08-03T14:11:09;3.25;;;1.60;;
7247;SDS011;3665;51.034;13.642;2022-08-03T14:15:56;2.22;;;1.98;;
7247;SDS011;3665;51.034;13.642;2022-08-03T14:20:43;3.40;;;2.00;;
7247;SDS011;3665;51.034;13.642;2022-08-03T14:25:37;2.15;;;1.70;;
7247;SDS011;3665;51.034;13.642;2022-08-03T14:30:34;3.20;;;1.70;;
7247;SDS011;3665;51.034;13.642;2022-08-03T14:35:19;1.73;;;1.60;;
7247;SDS011;3665;51.034;13.642;2022-08-03T14:40:04;1.63;;;1.50;;
7247;SDS011;3665;51.034;13.642;2022-08-03T14:44:49;1.55;;;1.45;;
7247;SDS011;3665;51.034;13.642;2022-08-03T14:49:38;2.33;;;1.67;;
7247;SDS011;3665;51.034;13.642;2022-08-03T14:54:45;3.65;;;1.52;;
7247;SDS011;3665;51.034;13.642;2022-08-03T14:59:36;2.88;;;1.95;;
7247;SDS011;3665;51.034;13.642;2022-08-03T15:04:37;2.65;;;1.50;;
7247;SDS011;3665;51.034;13.642;2022-08-03T15:09:22;3.92;;;1.50;;
7247;SDS011;3665;51.034;13.642;2022-08-03T15:14:07;1.52;;;1.30;;
7247;SDS011;3665;51.034;13.642;2022-08-03T15:18:54;2.10;;;1.50;;
7247;SDS011;3665;51.034;13.642;2022-08-03T15:23:38;4.13;;;1.48;;
7247;SDS011;3665;51.034;13.642;2022-08-03T15:28:25;2.58;;;1.55;;
7247;SDS011;3665;51.034;13.642;2022-08-03T15:33:37;2.35;;;1.70;;
7247;SDS011;3665;51.034;13.642;2022-08-03T15:38:21;1.45;;;1.38;;
7247;SDS011;3665;51.034;13.642;2022-08-03T15:43:07;1.73;;;1.63;;
7247;SDS011;3665;51.034;13.642;2022-08-03T15:47:51;2.25;;;1.48;;
7247;SDS011;3665;51.034;13.642;2022-08-03T15:52:36;3.00;;;1.50;;
7247;SDS011;3665;51.034;13.642;2022-08-03T15:57:20;1.88;;;1.77;;
7247;SDS011;3665;51.034;13.642;2022-08-03T16:02:04;2.17;;;2.08;;
7247;SDS011;3665;51.034;13.642;2022-08-03T16:06:50;6.40;;;5.80;;
7247;SDS011;3665;51.034;13.642;2022-08-03T16:11:39;1.90;;;1.80;;
7247;SDS011;3665;51.034;13.642;2022-08-03T16:16:24;2.22;;;1.45;;
7247;SDS011;3665;51.034;13.642;2022-08-03T16:21:08;3.20;;;1.63;;
7247;SDS011;3665;51.034;13.642;2022-08-03T16:26:00;1.65;;;1.55;;
7247;SDS011;3665;51.034;13.642;2022-08-03T16:30:51;2.55;;;1.70;;
7247;SDS011;3665;51.034;13.642;2022-08-03T16:35:37;1.85;;;1.70;;
7247;SDS011;3665;51.034;13.642;2022-08-03T16:40:22;3.72;;;2.10;;
7247;SDS011;3665;51.034;13.642;2022-08-03T16:45:07;2.83;;;1.80;;
7247;SDS011;3665;51.034;13.642;2022-08-03T16:49:53;2.95;;;1.70;;
7247;SDS011;3665;51.034;13.642;2022-08-03T16:54:38;1.70;;;1.60;;
7247;SDS011;3665;51.034;13.642;2022-08-03T16:59:22;2.60;;;1.80;;
7247;SDS011;3665;51.034;13.642;2022-08-03T17:04:17;1.50;;;1.40;;
7247;SDS011;3665;51.034;13.642;2022-08-03T17:09:04;2.38;;;2.17;;
7247;SDS011;3665;51.034;13.642;2022-08-03T17:13:50;2.05;;;1.88;;
7247;SDS011;3665;51.034;13.642;2022-08-03T17:18:36;2.22;;;1.70;;
7247;SDS011;3665;51.034;13.642;2022-08-03T17:23:31;1.73;;;1.63;;
7247;SDS011;3665;51.034;13.642;2022-08-03T17:28:23;1.92;;;1.73;;
7247;SDS011;3665;51.034;13.642;2022-08-03T17:34:05;4.10;;;2.28;;
7247;SDS011;3665;51.034;13.642;2022-08-03T17:38:49;3.83;;;1.90;;
7247;SDS011;3665;51.034;13.642;2022-08-03T17:43:35;2.28;;;1.70;;
7247;SDS011;3665;51.034;13.642;2022-08-03T17:48:41;2.72;;;1.80;;
7247;SDS011;3665;51.034;13.642;2022-08-03T17:53:26;3.28;;;1.85;;
7247;SDS011;3665;51.034;13.642;2022-08-03T17:58:12;2.30;;;1.60;;
7247;SDS011;3665;51.034;13.642;2022-08-03T18:03:06;2.55;;;1.80;;
7247;SDS011;3665;51.034;13.642;2022-08-03T18:08:01;4.05;;;1.92;;
7247;SDS011;3665;51.034;13.642;2022-08-03T18:12:52;2.97;;;1.65;;
7247;SDS011;3665;51.034;13.642;2022-08-03T18:17:40;2.15;;;1.70;;
7247;SDS011;3665;51.034;13.642;2022-08-03T18:22:44;6.70;;;1.67;;
7247;SDS011;3665;51.034;13.642;2022-08-03T18:27:28;2.42;;;1.80;;
7247;SDS011;3665;51.034;13.642;2022-08-03T18:32:26;4.70;;;2.25;;
7247;SDS011;3665;51.034;13.642;2022-08-03T18:37:19;3.63;;;3.33;;
7247;SDS011;3665;51.034;13.642;2022-08-03T18:42:07;2.85;;;2.60;;
7247;SDS011;3665;51.034;13.642;2022-08-03T18:47:02;2.65;;;2.10;;
7247;SDS011;3665;51.034;13.642;2022-08-03T18:52:09;2.38;;;2.17;;
7247;SDS011;3665;51.034;13.642;2022-08-03T18:57:00;3.85;;;1.90;;
7247;SDS011;3665;51.034;13.642;2022-08-03T19:01:47;2.85;;;1.83;;
7247;SDS011;3665;51.034;13.642;2022-08-03T19:06:44;3.22;;;1.88;;
7247;SDS011;3665;51.034;13.642;2022-08-03T19:11:35;2.75;;;1.85;;
7247;SDS011;3665;51.034;13.642;2022-08-03T19:16:41;4.55;;;2.13;;
7247;SDS011;3665;51.034;13.642;2022-08-03T19:21:32;2.20;;;1.90;;
7247;SDS011;3665;51.034;13.642;2022-08-03T19:26:16;3.30;;;2.10;;
7247;SDS011;3665;51.034;13.642;2022-08-03T19:31:12;2.33;;;2.15;;
7247;SDS011;3665;51.034;13.642;2022-08-03T19:36:15;2.58;;;2.00;;
7247;SDS011;3665;51.034;13.642;2022-08-03T19:41:10;2.88;;;1.70;;
7247;SDS011;3665;51.034;13.642;2022-08-03T19:46:01;2.17;;;1.80;;
7247;SDS011;3665;51.034;13.642;2022-08-03T19:51:02;2.35;;;2.10;;
7247;SDS011;3665;51.034;13.642;2022-08-03T19:55:58;2.50;;;2.25;;
7247;SDS011;3665;51.034;13.642;2022-08-03T20:00:49;2.15;;;2.00;;
7247;SDS011;3665;51.034;13.642;2022-08-03T20:05:37;3.20;;;2.30;;
7247;SDS011;3665;51.034;13.642;2022-08-03T20:10:33;2.30;;;2.10;;
7247;SDS011;3665;51.034;13.642;2022-08-03T20:15:21;3.53;;;2.28;;
7247;SDS011;3665;51.034;13.642;2022-08-03T20:20:16;2.58;;;2.10;;
7247;SDS011;3665;51.034;13.642;2022-08-03T20:25:06;3.85;;;2.47;;
7247;SDS011;3665;51.034;13.642;2022-08-03T20:30:00;2.53;;;2.33;;
7247;SDS011;3665;51.034;13.642;2022-08-03T20:34:55;3.30;;;2.25;;
7247;SDS011;3665;51.034;13.642;2022-08-03T20:39:43;2.33;;;2.15;;
7247;SDS011;3665;51.034;13.642;2022-08-03T20:44:48;2.70;;;2.50;;
7247;SDS011;3665;51.034;13.642;2022-08-03T20:49:47;3.45;;;2.38;;
7247;SDS011;3665;51.034;13.642;2022-08-03T20:54:36;3.75;;;2.63;;
7247;SDS011;3665;51.034;13.642;2022-08-03T20:59:30;2.53;;;2.33;;
7247;SDS011;3665;51.034;13.642;2022-08-03T21:04:32;3.10;;;2.10;;
7247;SDS011;3665;51.034;13.642;2022-08-03T21:09:28;5.43;;;2.70;;
7247;SDS011;3665;51.034;13.642;2022-08-03T21:14:31;3.35;;;2.65;;
7247;SDS011;3665;51.034;13.642;2022-08-03T21:19:21;3.45;;;2.75;;
7247;SDS011;3665;51.034;13.642;2022-08-03T21:24:11;4.25;;;2.85;;
7247;SDS011;3665;51.034;13.642;2022-08-03T21:28:59;2.65;;;2.45;;
7247;SDS011;3665;51.034;13.642;2022-08-03T21:33:45;4.63;;;2.75;;
7247;SDS011;3665;51.034;13.642;2022-08-03T21:38:36;2.97;;;2.70;;
7247;SDS011;3665;51.034;13.642;2022-08-03T21:43:37;2.80;;;2.60;;
7247;SDS011;3665;51.034;13.642;2022-08-03T21:48:22;3.20;;;2.90;;
7247;SDS011;3665;51.034;13.642;2022-08-03T21:53:09;4.93;;;2.40;;
7247;SDS011;3665;51.034;13.642;2022-08-03T21:57:56;3.10;;;2.80;;
7247;SDS011;3665;51.034;13.642;2022-08-03T22:02:49;3.13;;;2.92;;
7247;SDS011;3665;51.034;13.642;2022-08-03T22:07:42;3.10;;;2.50;;
7247;SDS011;3665;51.034;13.642;2022-08-03T22:12:33;3.73;;;3.10;;
7247;SDS011;3665;51.034;13.642;2022-08-03T22:17:27;5.10;;;2.90;;
7247;SDS011;3665;51.034;13.642;2022-08-03T22:22:36;3.43;;;2.90;;
7247;SDS011;3665;51.034;13.642;2022-08-03T22:27:38;2.67;;;2.47;;
7247;SDS011;3665;51.034;13.642;2022-08-03T22:32:30;3.40;;;3.10;;
7247;SDS011;3665;51.034;13.642;2022-08-03T22:37:15;4.47;;;2.90;;
7247;SDS011;3665;51.034;13.642;2022-08-03T22:42:04;2.87;;;2.67;;
7247;SDS011;3665;51.034;13.642;2022-08-03T22:46:58;2.90;;;2.67;;
7247;SDS011;3665;51.034;13.642;2022-08-03T22:51:49;2.97;;;2.77;;
7247;SDS011;3665;51.034;13.642;2022-08-03T22:56:38;3.70;;;3.00;;
7247;SDS011;3665;51.034;13.642;2022-08-03T23:01:38;3.33;;;2.90;;
7247;SDS011;3665;51.034;13.642;2022-08-03T23:06:51;3.03;;;2.40;;
7247;SDS011;3665;51.034;13.642;2022-08-03T23:11:47;3.20;;;2.90;;
7247;SDS011;3665;51.034;13.642;2022-08-03T23:16:33;3.10;;;2.80;;
7247;SDS011;3665;51.034;13.642;2022-08-03T23:21:28;2.77;;;2.57;;
7247;SDS011;3665;51.034;13.642;2022-08-03T23:26:42;4.03;;;3.27;;
7247;SDS011;3665;51.034;13.642;2022-08-03T23:31:30;3.37;;;3.07;;
7247;SDS011;3665;51.034;13.642;2022-08-03T23:36:26;3.77;;;3.37;;
7247;SDS011;3665;51.034;13.642;2022-08-03T23:41:12;3.57;;;3.27;;
7247;SDS011;3665;51.034;13.642;2022-08-03T23:46:09;3.27;;;2.80;;
7247;SDS011;3665;51.034;13.642;2022-08-03T23:51:09;3.57;;;3.13;;
7247;SDS011;3665;51.034;13.642;2022-08-03T23:56:12;3.20;;;2.90;;
